sensor_id;sensor_type;location;lat;lon;timestamp;pressure;altitude;pressure_sealevel;temperature;humidity
54306;BME280;66145;45.188;5.712;2023-02-13T00:01:10;101056.41;;;15.63;41.36
54306;BME280;66145;45.188;5.712;2023-02-13T00:03:36;101026.72;;;15.49;41.68
54306;BME280;66145;45.188;5.712;2023-02-13T00:06:01;101061.44;;;15.71;41.44
54306;BME280;66145;45.188;5.712;2023-02-13T00:08:26;101069.34;;;15.73;41.30
54306;BME280;66145;45.188;5.712;2023-02-13T00:10:52;101040.28;;;15.61;41.38
54306;BME280;66145;45.188;5.712;2023-02-13T00:13:17;101028.72;;;15.54;41.44
54306;BME280;66145;45.188;5.712;2023-02-13T00:15:43;101027.31;;;15.51;41.51
54306;BME280;66145;45.188;5.712;2023-02-13T00:18:08;101019.38;;;15.50;41.47
54306;BME280;66145;45.188;5.712;2023-02-13T00:20:33;100958.75;;;15.09;41.42
54306;BME280;66145;45.188;5.712;2023-02-13T00:22:59;101022.59;;;15.47;41.34
54306;BME280;66145;45.188;5.712;2023-02-13T00:25:24;100972.16;;;15.10;41.45
54306;BME280;66145;45.188;5.712;2023-02-13T00:27:50;101023.94;;;15.44;41.23
54306;BME280;66145;45.188;5.712;2023-02-13T00:30:16;101058.31;;;15.62;41.36
54306;BME280;66145;45.188;5.712;2023-02-13T00:32:41;101023.38;;;15.42;41.26
54306;BME280;66145;45.188;5.712;2023-02-13T00:35:07;101033.34;;;15.54;41.42
54306;BME280;66145;45.188;5.712;2023-02-13T00:37:33;101056.75;;;15.66;41.33
54306;BME280;66145;45.188;5.712;2023-02-13T00:39:58;101053.16;;;15.66;41.36
54306;BME280;66145;45.188;5.712;2023-02-13T00:42:24;101046.91;;;15.65;41.12
54306;BME280;66145;45.188;5.712;2023-02-13T00:44:51;101055.91;;;15.66;41.30
54306;BME280;66145;45.188;5.712;2023-02-13T00:47:17;100957.25;;;15.01;41.21
54306;BME280;66145;45.188;5.712;2023-02-13T00:49:42;101008.25;;;15.34;41.41
54306;BME280;66145;45.188;5.712;2023-02-13T00:52:07;101055.34;;;15.64;41.23
54306;BME280;66145;45.188;5.712;2023-02-13T00:54:33;101013.44;;;15.36;41.26
54306;BME280;66145;45.188;5.712;2023-02-13T00:56:58;101039.56;;;15.49;41.14
54306;BME280;66145;45.188;5.712;2023-02-13T00:59:23;101013.03;;;15.27;41.46
54306;BME280;66145;45.188;5.712;2023-02-13T01:01:49;101049.72;;;15.54;41.52
54306;BME280;66145;45.188;5.712;2023-02-13T01:04:14;101016.09;;;15.31;41.26
54306;BME280;66145;45.188;5.712;2023-02-13T01:06:39;101003.34;;;15.19;41.38
54306;BME280;66145;45.188;5.712;2023-02-13T01:09:05;100991.31;;;15.15;41.16
54306;BME280;66145;45.188;5.712;2023-02-13T01:11:30;101075.91;;;15.72;41.09
54306;BME280;66145;45.188;5.712;2023-02-13T01:13:56;101082.69;;;15.69;41.15
54306;BME280;66145;45.188;5.712;2023-02-13T01:16:21;101035.94;;;15.43;41.12
54306;BME280;66145;45.188;5.712;2023-02-13T01:18:47;101060.03;;;15.51;41.27
54306;BME280;66145;45.188;5.712;2023-02-13T01:21:20;101001.38;;;15.15;41.16
54306;BME280;66145;45.188;5.712;2023-02-13T01:23:47;101091.34;;;15.66;41.30
54306;BME280;66145;45.188;5.712;2023-02-13T01:26:17;101087.56;;;15.67;41.20
54306;BME280;66145;45.188;5.712;2023-02-13T01:28:43;101075.09;;;15.54;41.21
54306;BME280;66145;45.188;5.712;2023-02-13T01:31:08;101096.59;;;15.68;41.17
54306;BME280;66145;45.188;5.712;2023-02-13T01:33:34;101052.88;;;15.45;41.11
54306;BME280;66145;45.188;5.712;2023-02-13T01:36:10;101089.22;;;15.68;41.24
54306;BME280;66145;45.188;5.712;2023-02-13T01:38:36;101078.78;;;15.65;41.29
54306;BME280;66145;45.188;5.712;2023-02-13T01:41:02;101092.09;;;15.61;41.20
54306;BME280;66145;45.188;5.712;2023-02-13T01:43:51;101068.38;;;15.45;41.25
54306;BME280;66145;45.188;5.712;2023-02-13T01:46:22;101060.47;;;15.43;41.09
54306;BME280;66145;45.188;5.712;2023-02-13T01:48:50;101030.97;;;15.23;41.24
54306;BME280;66145;45.188;5.712;2023-02-13T01:51:23;101091.53;;;15.59;41.30
54306;BME280;66145;45.188;5.712;2023-02-13T01:53:58;101105.56;;;15.68;41.11
54306;BME280;66145;45.188;5.712;2023-02-13T01:56:32;101101.19;;;15.67;41.05
54306;BME280;66145;45.188;5.712;2023-02-13T01:59:01;101068.66;;;15.43;41.16
54306;BME280;66145;45.188;5.712;2023-02-13T02:01:29;101100.13;;;15.68;41.18
54306;BME280;66145;45.188;5.712;2023-02-13T02:03:59;101099.72;;;15.59;41.38
54306;BME280;66145;45.188;5.712;2023-02-13T02:06:34;101091.69;;;15.52;41.40
54306;BME280;66145;45.188;5.712;2023-02-13T02:09:03;101059.88;;;15.41;41.32
54306;BME280;66145;45.188;5.712;2023-02-13T02:11:47;101062.69;;;15.46;41.24
54306;BME280;66145;45.188;5.712;2023-02-13T02:14:15;101090.72;;;15.59;41.28
54306;BME280;66145;45.188;5.712;2023-02-13T02:16:40;101066.81;;;15.49;41.13
54306;BME280;66145;45.188;5.712;2023-02-13T02:19:15;101082.53;;;15.59;41.33
54306;BME280;66145;45.188;5.712;2023-02-13T02:22:08;101102.63;;;15.70;41.21
54306;BME280;66145;45.188;5.712;2023-02-13T02:30:54;101110.44;;;15.66;41.28
54306;BME280;66145;45.188;5.712;2023-02-13T02:49:40;101088.06;;;15.64;41.22
54306;BME280;66145;45.188;5.712;2023-02-13T02:52:42;101099.53;;;15.66;41.30
54306;BME280;66145;45.188;5.712;2023-02-13T02:55:18;101085.34;;;15.64;41.29
54306;BME280;66145;45.188;5.712;2023-02-13T02:57:48;101091.31;;;15.61;41.28
54306;BME280;66145;45.188;5.712;2023-02-13T03:00:41;101092.19;;;15.66;41.03
54306;BME280;66145;45.188;5.712;2023-02-13T03:03:26;101083.19;;;15.66;41.02
54306;BME280;66145;45.188;5.712;2023-02-13T03:06:25;101043.53;;;15.41;41.11
54306;BME280;66145;45.188;5.712;2023-02-13T03:08:55;101072.25;;;15.66;41.33
54306;BME280;66145;45.188;5.712;2023-02-13T03:11:42;101056.72;;;15.49;40.96
54306;BME280;66145;45.188;5.712;2023-02-13T03:14:28;101071.94;;;15.62;41.17
54306;BME280;66145;45.188;5.712;2023-02-13T03:16:55;101049.88;;;15.47;41.28
54306;BME280;66145;45.188;5.712;2023-02-13T03:19:59;101065.50;;;15.51;41.45
54306;BME280;66145;45.188;5.712;2023-02-13T03:28:24;101085.41;;;15.69;41.18
54306;BME280;66145;45.188;5.712;2023-02-13T03:31:26;101064.84;;;15.61;40.97
54306;BME280;66145;45.188;5.712;2023-02-13T03:34:16;101087.66;;;15.72;41.13
54306;BME280;66145;45.188;5.712;2023-02-13T03:37:04;101094.19;;;15.71;41.07
54306;BME280;66145;45.188;5.712;2023-02-13T03:39:59;101009.06;;;15.18;41.01
54306;BME280;66145;45.188;5.712;2023-02-13T03:45:17;101079.81;;;15.59;41.39
54306;BME280;66145;45.188;5.712;2023-02-13T03:48:04;101104.19;;;15.65;41.25
54306;BME280;66145;45.188;5.712;2023-02-13T03:50:35;101016.09;;;15.14;41.35
54306;BME280;66145;45.188;5.712;2023-02-13T03:53:08;101095.75;;;15.67;41.18
54306;BME280;66145;45.188;5.712;2023-02-13T03:55:44;101075.09;;;15.54;41.14
54306;BME280;66145;45.188;5.712;2023-02-13T03:58:34;101085.25;;;15.59;41.01
54306;BME280;66145;45.188;5.712;2023-02-13T04:01:25;101095.16;;;15.65;41.25
54306;BME280;66145;45.188;5.712;2023-02-13T04:06:30;101080.28;;;15.56;41.00
54306;BME280;66145;45.188;5.712;2023-02-13T04:08:56;101084.09;;;15.55;41.04
54306;BME280;66145;45.188;5.712;2023-02-13T04:11:43;101115.41;;;15.69;41.05
54306;BME280;66145;45.188;5.712;2023-02-13T04:16:45;101101.84;;;15.57;40.93
54306;BME280;66145;45.188;5.712;2023-02-13T04:19:12;101095.25;;;15.53;41.00
54306;BME280;66145;45.188;5.712;2023-02-13T04:21:39;101079.78;;;15.42;41.13
54306;BME280;66145;45.188;5.712;2023-02-13T04:24:05;101075.75;;;15.44;41.10
54306;BME280;66145;45.188;5.712;2023-02-13T04:26:37;101113.75;;;15.68;41.12
54306;BME280;66145;45.188;5.712;2023-02-13T04:29:04;101127.25;;;15.75;41.09
54306;BME280;66145;45.188;5.712;2023-02-13T04:31:29;101077.41;;;15.45;40.97
54306;BME280;66145;45.188;5.712;2023-02-13T04:33:55;101082.13;;;15.50;40.96
54306;BME280;66145;45.188;5.712;2023-02-13T04:36:20;101112.84;;;15.62;41.01
54306;BME280;66145;45.188;5.712;2023-02-13T04:38:46;101014.41;;;14.96;41.15
54306;BME280;66145;45.188;5.712;2023-02-13T04:41:11;101032.00;;;15.05;41.11
54306;BME280;66145;45.188;5.712;2023-02-13T04:43:36;101099.56;;;15.49;41.22
54306;BME280;66145;45.188;5.712;2023-02-13T04:46:02;101110.41;;;15.61;41.00
54306;BME280;66145;45.188;5.712;2023-02-13T04:48:27;101089.81;;;15.53;40.88
54306;BME280;66145;45.188;5.712;2023-02-13T04:50:53;101087.31;;;15.51;40.83
54306;BME280;66145;45.188;5.712;2023-02-13T04:53:18;101115.41;;;15.69;40.98
54306;BME280;66145;45.188;5.712;2023-02-13T04:55:44;101109.06;;;15.63;40.92
54306;BME280;66145;45.188;5.712;2023-02-13T04:58:09;101126.66;;;15.73;41.38
54306;BME280;66145;45.188;5.712;2023-02-13T05:00:34;101125.03;;;15.72;40.99
54306;BME280;66145;45.188;5.712;2023-02-13T05:03:07;101123.19;;;15.60;40.87
54306;BME280;66145;45.188;5.712;2023-02-13T05:05:33;101134.78;;;15.68;41.08
54306;BME280;66145;45.188;5.712;2023-02-13T05:07:59;101128.41;;;15.62;41.00
54306;BME280;66145;45.188;5.712;2023-02-13T05:10:24;101053.75;;;15.17;40.92
54306;BME280;66145;45.188;5.712;2023-02-13T05:12:49;101120.72;;;15.59;41.21
54306;BME280;66145;45.188;5.712;2023-02-13T05:15:15;101138.09;;;15.70;40.97
54306;BME280;66145;45.188;5.712;2023-02-13T05:17:43;101105.09;;;15.54;41.12
54306;BME280;66145;45.188;5.712;2023-02-13T05:20:09;101127.09;;;15.64;40.90
54306;BME280;66145;45.188;5.712;2023-02-13T05:22:34;101126.00;;;15.65;40.92
54306;BME280;66145;45.188;5.712;2023-02-13T05:25:18;101129.06;;;15.69;40.89
54306;BME280;66145;45.188;5.712;2023-02-13T05:27:44;101108.53;;;15.49;40.90
54306;BME280;66145;45.188;5.712;2023-02-13T05:30:10;101086.09;;;15.42;41.19
54306;BME280;66145;45.188;5.712;2023-02-13T05:32:35;101106.66;;;15.50;41.06
54306;BME280;66145;45.188;5.712;2023-02-13T05:35:00;101092.94;;;15.45;40.94
54306;BME280;66145;45.188;5.712;2023-02-13T05:37:26;101107.31;;;15.57;41.11
54306;BME280;66145;45.188;5.712;2023-02-13T05:39:51;101118.91;;;15.64;40.99
54306;BME280;66145;45.188;5.712;2023-02-13T05:42:16;101132.94;;;15.73;40.96
54306;BME280;66145;45.188;5.712;2023-02-13T05:44:42;101136.50;;;15.74;40.76
54306;BME280;66145;45.188;5.712;2023-02-13T05:47:07;101141.41;;;15.72;40.85
54306;BME280;66145;45.188;5.712;2023-02-13T05:49:33;101085.00;;;15.43;41.01
54306;BME280;66145;45.188;5.712;2023-02-13T05:51:58;101129.91;;;15.70;40.89
54306;BME280;66145;45.188;5.712;2023-02-13T05:54:23;101093.78;;;15.45;41.07
54306;BME280;66145;45.188;5.712;2023-02-13T05:56:49;101095.06;;;15.43;41.10
54306;BME280;66145;45.188;5.712;2023-02-13T05:59:14;101123.53;;;15.64;40.71
54306;BME280;66145;45.188;5.712;2023-02-13T06:01:40;101146.75;;;15.66;40.91
54306;BME280;66145;45.188;5.712;2023-02-13T06:04:05;101138.09;;;15.70;40.88
54306;BME280;66145;45.188;5.712;2023-02-13T06:06:30;101049.38;;;15.16;40.87
54306;BME280;66145;45.188;5.712;2023-02-13T06:08:56;101097.41;;;15.51;40.81
54306;BME280;66145;45.188;5.712;2023-02-13T06:11:21;101104.03;;;15.55;40.92
54306;BME280;66145;45.188;5.712;2023-02-13T06:13:46;101141.72;;;15.75;40.91
54306;BME280;66145;45.188;5.712;2023-02-13T06:16:12;101145.53;;;15.74;41.05
54306;BME280;66145;45.188;5.712;2023-02-13T06:18:38;101143.28;;;15.71;41.19
54306;BME280;66145;45.188;5.712;2023-02-13T06:21:04;101150.88;;;15.69;40.94
54306;BME280;66145;45.188;5.712;2023-02-13T06:23:30;101139.31;;;15.62;41.01
54306;BME280;66145;45.188;5.712;2023-02-13T06:25:56;101132.94;;;15.56;40.96
54306;BME280;66145;45.188;5.712;2023-02-13T06:28:25;101149.59;;;15.72;40.71
54306;BME280;66145;45.188;5.712;2023-02-13T06:30:51;101126.34;;;15.52;40.79
54306;BME280;66145;45.188;5.712;2023-02-13T06:33:16;101115.50;;;15.57;40.62
54306;BME280;66145;45.188;5.712;2023-02-13T06:35:41;101148.84;;;15.76;40.90
54306;BME280;66145;45.188;5.712;2023-02-13T06:38:07;101165.22;;;15.76;40.77
54306;BME280;66145;45.188;5.712;2023-02-13T06:40:32;101126.91;;;15.54;40.86
54306;BME280;66145;45.188;5.712;2023-02-13T06:42:57;101132.88;;;15.51;40.90
54306;BME280;66145;45.188;5.712;2023-02-13T06:45:23;101137.47;;;15.50;40.74
54306;BME280;66145;45.188;5.712;2023-02-13T06:47:48;101149.88;;;15.58;41.01
54306;BME280;66145;45.188;5.712;2023-02-13T06:50:15;101167.75;;;15.66;41.07
54306;BME280;66145;45.188;5.712;2023-02-13T06:52:46;101162.44;;;15.59;40.99
54306;BME280;66145;45.188;5.712;2023-02-13T06:55:12;101138.47;;;15.44;40.94
54306;BME280;66145;45.188;5.712;2023-02-13T06:57:38;101142.59;;;15.47;40.91
54306;BME280;66145;45.188;5.712;2023-02-13T07:00:03;101178.25;;;15.74;40.69
54306;BME280;66145;45.188;5.712;2023-02-13T07:02:32;101139.97;;;15.52;40.69
54306;BME280;66145;45.188;5.712;2023-02-13T07:04:58;101182.38;;;15.77;40.52
54306;BME280;66145;45.188;5.712;2023-02-13T07:07:23;101170.81;;;15.70;40.84
54306;BME280;66145;45.188;5.712;2023-02-13T07:09:49;101183.13;;;15.72;40.90
54306;BME280;66145;45.188;5.712;2023-02-13T07:12:14;101180.41;;;15.72;40.78
54306;BME280;66145;45.188;5.712;2023-02-13T07:14:39;101133.78;;;15.40;40.70
54306;BME280;66145;45.188;5.712;2023-02-13T07:17:05;101183.03;;;15.67;40.76
54306;BME280;66145;45.188;5.712;2023-02-13T07:19:31;101154.59;;;15.46;41.12
54306;BME280;66145;45.188;5.712;2023-02-13T07:21:56;101157.91;;;15.48;40.91
54306;BME280;66145;45.188;5.712;2023-02-13T07:24:21;101187.78;;;15.72;40.95
54306;BME280;66145;45.188;5.712;2023-02-13T07:26:47;101188.34;;;15.74;40.79
54306;BME280;66145;45.188;5.712;2023-02-13T07:29:12;101173.94;;;15.61;40.78
54306;BME280;66145;45.188;5.712;2023-02-13T07:31:38;101189.09;;;15.69;40.88
54306;BME280;66145;45.188;5.712;2023-02-13T07:34:04;101161.22;;;15.50;40.90
54306;BME280;66145;45.188;5.712;2023-02-13T07:36:29;101189.34;;;15.68;40.73
54306;BME280;66145;45.188;5.712;2023-02-13T07:38:55;101196.34;;;15.63;40.47
54306;BME280;66145;45.188;5.712;2023-02-13T07:41:20;101176.50;;;15.51;40.92
54306;BME280;66145;45.188;5.712;2023-02-13T07:43:45;101201.56;;;15.65;41.10
54306;BME280;66145;45.188;5.712;2023-02-13T07:46:11;101187.16;;;15.52;40.96
54306;BME280;66145;45.188;5.712;2023-02-13T07:48:36;101199.34;;;15.62;41.01
54306;BME280;66145;45.188;5.712;2023-02-13T07:51:04;101169.53;;;15.43;41.00
54306;BME280;66145;45.188;5.712;2023-02-13T07:53:30;101114.47;;;15.12;40.61
54306;BME280;66145;45.188;5.712;2023-02-13T07:55:55;101173.53;;;15.52;40.77
54306;BME280;66145;45.188;5.712;2023-02-13T07:58:20;101174.34;;;15.53;40.92
54306;BME280;66145;45.188;5.712;2023-02-13T08:00:46;101164.09;;;15.43;40.75
54306;BME280;66145;45.188;5.712;2023-02-13T08:03:11;101177.69;;;15.55;40.78
54306;BME280;66145;45.188;5.712;2023-02-13T08:05:37;101163.09;;;15.49;40.90
54306;BME280;66145;45.188;5.712;2023-02-13T08:08:03;101177.91;;;15.54;40.66
54306;BME280;66145;45.188;5.712;2023-02-13T08:10:28;101193.53;;;15.58;41.14
54306;BME280;66145;45.188;5.712;2023-02-13T08:13:13;101160.69;;;15.36;40.98
54306;BME280;66145;45.188;5.712;2023-02-13T08:15:39;101198.97;;;15.58;40.86
54306;BME280;66145;45.188;5.712;2023-02-13T08:18:05;101198.50;;;15.61;40.54
54306;BME280;66145;45.188;5.712;2023-02-13T08:20:30;101170.13;;;15.45;40.81
54306;BME280;66145;45.188;5.712;2023-02-13T08:23:06;101197.19;;;15.64;41.05
54306;BME280;66145;45.188;5.712;2023-02-13T08:25:32;101187.69;;;15.66;40.68
54306;BME280;66145;45.188;5.712;2023-02-13T08:27:59;101203.56;;;15.70;40.89
54306;BME280;66145;45.188;5.712;2023-02-13T08:30:25;101190.31;;;15.61;40.52
54306;BME280;66145;45.188;5.712;2023-02-13T08:32:50;101181.06;;;15.62;40.70
54306;BME280;66145;45.188;5.712;2023-02-13T08:35:15;101192.06;;;15.68;40.79
54306;BME280;66145;45.188;5.712;2023-02-13T08:37:41;101158.16;;;15.46;40.87
54306;BME280;66145;45.188;5.712;2023-02-13T08:40:06;101195.03;;;15.66;40.75
54306;BME280;66145;45.188;5.712;2023-02-13T08:42:35;101170.47;;;15.49;41.05
54306;BME280;66145;45.188;5.712;2023-02-13T08:45:00;101177.69;;;15.55;40.53
54306;BME280;66145;45.188;5.712;2023-02-13T08:47:26;101198.09;;;15.70;40.74
54306;BME280;66145;45.188;5.712;2023-02-13T08:49:51;101186.50;;;15.62;40.99
54306;BME280;66145;45.188;5.712;2023-02-13T08:52:16;101185.44;;;15.63;40.88
54306;BME280;66145;45.188;5.712;2023-02-13T08:54:42;101191.81;;;15.69;40.86
54306;BME280;66145;45.188;5.712;2023-02-13T08:57:07;101186.28;;;15.64;41.15
54306;BME280;66145;45.188;5.712;2023-02-13T08:59:33;101148.91;;;15.47;40.81
54306;BME280;66145;45.188;5.712;2023-02-13T09:01:58;101166.25;;;15.58;41.03
54306;BME280;66145;45.188;5.712;2023-02-13T09:04:23;101127.31;;;15.29;40.75
54306;BME280;66145;45.188;5.712;2023-02-13T09:06:49;101123.16;;;15.26;40.84
54306;BME280;66145;45.188;5.712;2023-02-13T09:09:14;101157.16;;;15.52;40.77
54306;BME280;66145;45.188;5.712;2023-02-13T09:11:40;101065.84;;;14.92;40.87
54306;BME280;66145;45.188;5.712;2023-02-13T09:14:06;101160.47;;;15.55;40.69
54306;BME280;66145;45.188;5.712;2023-02-13T09:16:34;101179.25;;;15.68;40.90
54306;BME280;66145;45.188;5.712;2023-02-13T09:18:59;101089.19;;;15.17;40.75
54306;BME280;66145;45.188;5.712;2023-02-13T09:21:25;101172.97;;;15.68;40.84
54306;BME280;66145;45.188;5.712;2023-02-13T09:23:50;101157.00;;;15.59;40.88
54306;BME280;66145;45.188;5.712;2023-02-13T09:26:17;101167.41;;;15.62;40.87
54306;BME280;66145;45.188;5.712;2023-02-13T09:28:42;101151.69;;;15.52;40.85
54306;BME280;66145;45.188;5.712;2023-02-13T09:31:10;101084.72;;;15.11;41.28
54306;BME280;66145;45.188;5.712;2023-02-13T09:33:36;101161.97;;;15.62;40.99
54306;BME280;66145;45.188;5.712;2023-02-13T09:36:11;101168.59;;;15.66;40.77
54306;BME280;66145;45.188;5.712;2023-02-13T09:38:39;101117.97;;;15.42;40.80
54306;BME280;66145;45.188;5.712;2023-02-13T09:41:11;101154.84;;;15.61;41.01
54306;BME280;66145;45.188;5.712;2023-02-13T09:43:48;101133.09;;;15.49;40.99
54306;BME280;66145;45.188;5.712;2023-02-13T09:46:21;101163.63;;;15.63;41.03
54306;BME280;66145;45.188;5.712;2023-02-13T09:48:52;101082.81;;;15.11;40.78
54306;BME280;66145;45.188;5.712;2023-02-13T09:51:19;101164.47;;;15.64;41.04
54306;BME280;66145;45.188;5.712;2023-02-13T09:53:58;101121.75;;;15.41;41.00
54306;BME280;66145;45.188;5.712;2023-02-13T10:05:39;101156.94;;;15.71;41.03
54306;BME280;66145;45.188;5.712;2023-02-13T10:10:55;101152.53;;;15.70;40.94
54306;BME280;66145;45.188;5.712;2023-02-13T10:13:58;101140.22;;;15.68;41.02
54306;BME280;66145;45.188;5.712;2023-02-13T10:19:14;101141.78;;;15.63;41.05
54306;BME280;66145;45.188;5.712;2023-02-13T10:21:52;101128.66;;;15.60;41.01
54306;BME280;66145;45.188;5.712;2023-02-13T10:24:32;101141.22;;;15.61;40.75
54306;BME280;66145;45.188;5.712;2023-02-13T10:27:04;101095.34;;;15.41;41.11
54306;BME280;66145;45.188;5.712;2023-02-13T10:29:54;101126.00;;;15.65;41.07
54306;BME280;66145;45.188;5.712;2023-02-13T10:37:46;101094.91;;;15.49;40.83
54306;BME280;66145;45.188;5.712;2023-02-13T10:40:15;101119.22;;;15.68;41.09
54306;BME280;66145;45.188;5.712;2023-02-13T10:43:11;101111.53;;;15.65;41.05
54306;BME280;66145;45.188;5.712;2023-02-13T10:48:59;101112.63;;;15.64;41.19
54306;BME280;66145;45.188;5.712;2023-02-13T10:51:35;101106.06;;;15.65;41.20
54306;BME280;66145;45.188;5.712;2023-02-13T11:02:16;101080.38;;;15.61;41.10
54306;BME280;66145;45.188;5.712;2023-02-13T11:04:44;101089.47;;;15.66;41.31
54306;BME280;66145;45.188;5.712;2023-02-13T11:07:13;101087.81;;;15.65;40.92
54306;BME280;66145;45.188;5.712;2023-02-13T11:09:42;101074.03;;;15.55;41.12
54306;BME280;66145;45.188;5.712;2023-02-13T11:12:30;101043.25;;;15.43;41.21
54306;BME280;66145;45.188;5.712;2023-02-13T11:15:06;101053.19;;;15.49;40.90
54306;BME280;66145;45.188;5.712;2023-02-13T11:17:39;101050.94;;;15.46;41.06
54306;BME280;66145;45.188;5.712;2023-02-13T11:20:31;101079.72;;;15.71;41.21
54306;BME280;66145;45.188;5.712;2023-02-13T11:23:16;101051.09;;;15.56;40.96
54306;BME280;66145;45.188;5.712;2023-02-13T11:25:55;101071.84;;;15.74;41.06
54306;BME280;66145;45.188;5.712;2023-02-13T11:28:21;101041.28;;;15.55;41.17
54306;BME280;66145;45.188;5.712;2023-02-13T11:30:47;101066.41;;;15.74;41.12
54306;BME280;66145;45.188;5.712;2023-02-13T11:35:41;101063.53;;;15.64;40.86
54306;BME280;66145;45.188;5.712;2023-02-13T11:40:38;100980.75;;;15.19;41.27
54306;BME280;66145;45.188;5.712;2023-02-13T11:43:06;101042.78;;;15.63;41.01
54306;BME280;66145;45.188;5.712;2023-02-13T11:45:32;101057.91;;;15.71;40.92
54306;BME280;66145;45.188;5.712;2023-02-13T11:47:58;101038.63;;;15.60;41.16
54306;BME280;66145;45.188;5.712;2023-02-13T11:50:34;101055.16;;;15.71;41.15
54306;BME280;66145;45.188;5.712;2023-02-13T11:53:05;101015.31;;;15.52;41.33
54306;BME280;66145;45.188;5.712;2023-02-13T11:55:37;101016.41;;;15.51;41.16
54306;BME280;66145;45.188;5.712;2023-02-13T11:58:24;101040.19;;;15.73;41.18
54306;BME280;66145;45.188;5.712;2023-02-13T12:04:06;101028.38;;;15.68;41.26
54306;BME280;66145;45.188;5.712;2023-02-13T12:06:40;101035.53;;;15.74;41.18
54306;BME280;66145;45.188;5.712;2023-02-13T12:09:14;101031.75;;;15.75;41.24
54306;BME280;66145;45.188;5.712;2023-02-13T12:11:47;100926.03;;;15.09;41.21
54306;BME280;66145;45.188;5.712;2023-02-13T12:14:38;101019.53;;;15.77;41.22
54306;BME280;66145;45.188;5.712;2023-02-13T12:17:25;101008.72;;;15.65;41.10
54306;BME280;66145;45.188;5.712;2023-02-13T12:19:52;100983.75;;;15.57;41.04
54306;BME280;66145;45.188;5.712;2023-02-13T12:39:16;100966.41;;;15.63;41.45
54306;BME280;66145;45.188;5.712;2023-02-13T12:47:30;100980.97;;;15.74;41.36
54306;BME280;66145;45.188;5.712;2023-02-13T13:12:11;100947.50;;;15.78;41.36
54306;BME280;66145;45.188;5.712;2023-02-13T13:20:34;100935.75;;;15.78;41.48
54306;BME280;66145;45.188;5.712;2023-02-13T13:28:28;100897.38;;;15.62;41.44
54306;BME280;66145;45.188;5.712;2023-02-13T13:30:57;100918.81;;;15.76;41.30
54306;BME280;66145;45.188;5.712;2023-02-13T13:33:24;100832.84;;;15.29;41.49
54306;BME280;66145;45.188;5.712;2023-02-13T13:49:39;100900.59;;;15.81;41.63
54306;BME280;66145;45.188;5.712;2023-02-13T13:54:50;100862.41;;;15.59;41.54
54306;BME280;66145;45.188;5.712;2023-02-13T13:57:20;100801.41;;;15.21;41.50
54306;BME280;66145;45.188;5.712;2023-02-13T14:05:29;100877.13;;;15.80;41.76
54306;BME280;66145;45.188;5.712;2023-02-13T14:08:00;100876.59;;;15.84;41.52
54306;BME280;66145;45.188;5.712;2023-02-13T14:20:49;100872.00;;;15.84;41.70
54306;BME280;66145;45.188;5.712;2023-02-13T14:23:43;100866.53;;;15.84;41.98
54306;BME280;66145;45.188;5.712;2023-02-13T14:29:16;100852.66;;;15.86;41.80
54306;BME280;66145;45.188;5.712;2023-02-13T14:34:39;100848.44;;;15.78;41.65
54306;BME280;66145;45.188;5.712;2023-02-13T14:37:16;100823.72;;;15.62;41.65
54306;BME280;66145;45.188;5.712;2023-02-13T14:42:36;100808.44;;;15.61;41.70
54306;BME280;66145;45.188;5.712;2023-02-13T14:45:09;100849.13;;;15.85;41.66
54306;BME280;66145;45.188;5.712;2023-02-13T14:47:40;100841.97;;;15.84;41.95
54306;BME280;66145;45.188;5.712;2023-02-13T14:50:15;100839.50;;;15.82;41.78
54306;BME280;66145;45.188;5.712;2023-02-13T14:52:43;100805.78;;;15.66;41.66
54306;BME280;66145;45.188;5.712;2023-02-13T14:55:37;100751.94;;;15.34;41.77
54306;BME280;66145;45.188;5.712;2023-02-13T15:00:54;100802.53;;;15.70;41.67
54306;BME280;66145;45.188;5.712;2023-02-13T15:03:35;100819.81;;;15.80;41.94
54306;BME280;66145;45.188;5.712;2023-02-13T15:06:06;100793.78;;;15.68;41.78
54306;BME280;66145;45.188;5.712;2023-02-13T15:08:41;100821.56;;;15.87;41.67
54306;BME280;66145;45.188;5.712;2023-02-13T15:11:10;100736.09;;;15.31;41.89
54306;BME280;66145;45.188;5.712;2023-02-13T15:14:18;100823.47;;;15.86;41.80
54306;BME280;66145;45.188;5.712;2023-02-13T15:16:48;100833.56;;;15.86;41.74
54306;BME280;66145;45.188;5.712;2023-02-13T15:19:17;100822.53;;;15.80;41.99
54306;BME280;66145;45.188;5.712;2023-02-13T15:21:58;100794.28;;;15.64;41.79
54306;BME280;66145;45.188;5.712;2023-02-13T15:24:25;100829.75;;;15.87;42.02
54306;BME280;66145;45.188;5.712;2023-02-13T15:27:01;100815.47;;;15.79;42.00
54306;BME280;66145;45.188;5.712;2023-02-13T15:29:28;100815.13;;;15.76;41.80
54306;BME280;66145;45.188;5.712;2023-02-13T15:31:54;100780.66;;;15.64;42.09
54306;BME280;66145;45.188;5.712;2023-02-13T15:34:24;100814.22;;;15.87;41.81
54306;BME280;66145;45.188;5.712;2023-02-13T15:36:51;100784.75;;;15.67;41.93
54306;BME280;66145;45.188;5.712;2023-02-13T15:39:19;100807.00;;;15.81;42.23
54306;BME280;66145;45.188;5.712;2023-02-13T15:41:49;100792.00;;;15.78;41.88
54306;BME280;66145;45.188;5.712;2023-02-13T15:44:28;100774.91;;;15.66;41.95
54306;BME280;66145;45.188;5.712;2023-02-13T15:47:03;100774.63;;;15.62;42.22
54306;BME280;66145;45.188;5.712;2023-02-13T15:49:36;100727.41;;;15.34;42.14
54306;BME280;66145;45.188;5.712;2023-02-13T15:52:11;100820.47;;;15.88;42.06
54306;BME280;66145;45.188;5.712;2023-02-13T15:54:50;100800.81;;;15.86;42.12
54306;BME280;66145;45.188;5.712;2023-02-13T15:57:16;100778.44;;;15.61;42.02
54306;BME280;66145;45.188;5.712;2023-02-13T15:59:42;100782.09;;;15.72;41.83
54306;BME280;66145;45.188;5.712;2023-02-13T16:02:19;100785.22;;;16.08;41.19